createdAt,value
2022-10-01T00:18:44.611Z,0
2022-10-01T00:38:44.564Z,0
2022-10-01T00:58:44.552Z,0
2022-10-01T01:18:44.498Z,0
2022-10-01T01:38:44.479Z,0
2022-10-01T01:58:44.447Z,0
2022-10-01T02:18:44.396Z,0
2022-10-01T02:58:44.316Z,0
2022-10-01T03:18:44.304Z,0
2022-10-01T03:58:44.231Z,0
2022-10-01T04:18:44.257Z,0
2022-10-01T04:38:44.157Z,0
2022-10-01T04:58:44.122Z,44
2022-10-01T05:18:44.119Z,133
2022-10-01T05:38:44.044Z,279
2022-10-01T05:58:44.021Z,667
2022-10-01T06:18:43.959Z,1615
2022-10-01T06:38:43.920Z,3995
2022-10-01T07:18:43.875Z,1036
2022-10-01T07:38:43.817Z,1240
2022-10-01T07:58:43.819Z,2209
2022-10-01T08:18:43.719Z,1640
2022-10-01T08:38:43.726Z,2311
2022-10-01T08:58:43.626Z,2487
2022-10-01T09:18:43.616Z,6398
2022-10-01T09:38:43.595Z,2575
2022-10-01T09:58:43.555Z,2473
2022-10-01T10:18:43.456Z,2023
2022-10-01T10:38:43.453Z,1378
2022-10-01T10:58:43.369Z,1414
2022-10-01T11:18:43.354Z,2030
2022-10-01T11:38:43.289Z,2403
2022-10-01T11:58:43.260Z,2864
2022-10-01T12:18:43.205Z,1043
2022-10-01T12:58:43.131Z,1105
2022-10-01T13:38:43.052Z,1853
2022-10-01T13:58:42.979Z,3970
2022-10-01T14:18:42.946Z,2469
2022-10-01T14:38:42.965Z,2138
2022-10-01T15:18:42.821Z,1249
2022-10-01T15:38:49.810Z,805
2022-10-01T15:58:42.776Z,475
2022-10-01T16:18:42.718Z,343
2022-10-01T16:38:42.682Z,86
2022-10-01T16:58:42.821Z,13
2022-10-01T17:18:42.568Z,0
2022-10-01T17:38:42.567Z,0
2022-10-01T18:38:42.408Z,0
2022-10-01T18:58:42.409Z,0
2022-10-01T19:18:49.302Z,0
2022-10-01T19:38:56.284Z,0
2022-10-01T19:58:56.246Z,0
2022-10-01T20:38:49.169Z,0
2022-10-01T20:58:49.253Z,0
2022-10-01T21:18:49.065Z,0
2022-10-01T21:38:41.994Z,0
2022-10-01T21:58:44.230Z,0
2022-10-01T22:18:41.920Z,0
2022-10-01T22:58:41.897Z,0
2022-10-01T23:18:41.904Z,0
2022-10-01T23:38:48.766Z,0
2022-10-01T23:58:48.711Z,0
